Time;durP1;ratioP1;P1;durP2;ratioP2;P2;SDS_P1;SDS_P2;PMS_P1;PMS_P2;Temp;Humidity;BMP_temperature;BMP_pressure;BME280_temperature;BME280_humidity;BME280_pressure;Samples;Min_cycle;Max_cycle;Signal;HPM_P1;HPM_P2
2023/03/20 00:00:54;;;;;;;4.60;3.20;;;;;;;;;;5092834;28;20291;-80
2023/03/20 00:03:22;;;;;;;4.73;2.87;;;;;;;;;;5093344;28;20190;-81
2023/03/20 00:05:51;;;;;;;14.57;6.40;;;;;;;;;;5091818;28;20234;-81
2023/03/20 00:08:21;;;;;;;0.90;0.90;;;;;;;;;;5092743;28;20282;-81
2023/03/20 00:10:49;;;;;;;6.77;2.87;;;;;;;;;;5093021;28;20198;-81
2023/03/20 00:13:21;;;;;;;2.97;2.07;;;;;;;;;;5092433;28;20269;-81
2023/03/20 00:15:50;;;;;;;4.90;1.67;;;;;;;;;;5092616;28;20294;-81
2023/03/20 00:18:21;;;;;;;1.70;1.67;;;;;;;;;;5092679;28;20205;-81
2023/03/20 00:20:50;;;;;;;8.43;3.13;;;;;;;;;;5092606;28;20209;-81
2023/03/20 00:23:19;;;;;;;4.40;3.27;;;;;;;;;;5092452;28;20196;-81
2023/03/20 00:25:49;;;;;;;8.73;2.73;;;;;;;;;;5092649;28;20217;-81
2023/03/20 00:28:31;;;;;;;3.73;2.13;;;;;;;;;;5092790;28;20214;-81
2023/03/20 00:30:59;;;;;;;7.97;2.70;;;;;;;;;;5092331;28;20193;-81
2023/03/20 00:33:30;;;;;;;4.53;2.40;;;;;;;;;;5092447;28;20221;-81
2023/03/20 00:35:58;;;;;;;3.70;2.53;;;;;;;;;;5092250;28;20199;-81
2023/03/20 00:38:27;;;;;;;4.13;3.07;;;;;;;;;;5092587;28;20241;-81
2023/03/20 00:40:57;;;;;;;6.50;3.83;;;;;;;;;;5092314;28;20202;-81
2023/03/20 00:43:25;;;;;;;11.97;4.63;;;;;;;;;;5092005;28;20235;-81
2023/03/20 00:45:53;;;;;;;6.70;3.63;;;;;;;;;;5092572;28;20311;-81
2023/03/20 00:48:22;;;;;;;4.30;3.03;;;;;;;;;;5092297;28;20252;-81
2023/03/20 00:50:50;;;;;;;3.97;2.23;;;;;;;;;;5092552;28;20202;-81
2023/03/20 00:53:18;;;;;;;7.53;3.73;;;;;;;;;;5092101;28;20493;-81
2023/03/20 00:55:50;;;;;;;3.70;2.30;;;;;;;;;;5092192;28;20198;-81
2023/03/20 00:58:19;;;;;;;3.87;3.10;;;;;;;;;;5092029;28;20210;-81
2023/03/20 01:00:48;;;;;;;6.23;3.20;;;;;;;;;;5092037;28;20230;-81
2023/03/20 01:03:17;;;;;;;5.33;2.33;;;;;;;;;;5092537;28;20232;-81
2023/03/20 01:05:46;;;;;;;2.03;1.67;;;;;;;;;;5091938;28;20251;-80
2023/03/20 01:08:15;;;;;;;4.33;3.03;;;;;;;;;;5092442;28;20309;-81
2023/03/20 01:10:44;;;;;;;7.87;4.07;;;;;;;;;;5092015;28;20195;-81
2023/03/20 01:13:18;;;;;;;1.80;1.60;;;;;;;;;;5091744;28;20230;-81
2023/03/20 01:15:48;;;;;;;3.00;2.17;;;;;;;;;;5091974;28;20301;-81
2023/03/20 01:18:17;;;;;;;6.17;2.60;;;;;;;;;;5095969;28;20284;-81
2023/03/20 01:20:45;;;;;;;5.63;2.33;;;;;;;;;;5095839;28;20252;-81
2023/03/20 01:23:14;;;;;;;5.63;2.67;;;;;;;;;;5096220;28;20208;-81
2023/03/20 01:25:43;;;;;;;2.30;1.87;;;;;;;;;;5096227;28;20208;-81
2023/03/20 01:28:17;;;;;;;3.17;1.73;;;;;;;;;;5095872;28;20234;-81
2023/03/20 01:30:46;;;;;;;1.80;1.70;;;;;;;;;;5095879;28;20265;-81
2023/03/20 01:33:17;;;;;;;2.73;1.97;;;;;;;;;;5095605;28;20233;-81
2023/03/20 01:35:46;;;;;;;4.20;1.93;;;;;;;;;;5095807;28;20263;-81
2023/03/20 01:38:16;;;;;;;2.33;1.27;;;;;;;;;;5095826;28;20204;-81
2023/03/20 01:40:48;;;;;;;6.00;4.97;;;;;;;;;;5095254;28;20256;-81
2023/03/20 01:43:18;;;;;;;3.63;2.63;;;;;;;;;;5095409;28;20195;-81
2023/03/20 01:45:50;;;;;;;2.07;1.50;;;;;;;;;;5095533;28;20237;-81
2023/03/20 01:48:20;;;;;;;6.70;2.63;;;;;;;;;;5095699;28;20229;-81
2023/03/20 01:50:48;;;;;;;1.33;1.23;;;;;;;;;;5095509;28;20206;-81
2023/03/20 01:53:18;;;;;;;2.90;2.40;;;;;;;;;;5095029;28;20206;-81
2023/03/20 01:55:47;;;;;;;2.60;2.33;;;;;;;;;;5095206;28;20203;-81
2023/03/20 01:58:18;;;;;;;11.57;4.33;;;;;;;;;;5095467;28;20240;-81
2023/03/20 02:00:48;;;;;;;3.83;2.17;;;;;;;;;;5095046;28;20285;-81
2023/03/20 02:03:17;;;;;;;4.57;1.80;;;;;;;;;;5095051;28;20197;-81
2023/03/20 02:05:47;;;;;;;2.80;1.90;;;;;;;;;;5094987;28;20248;-81
2023/03/20 02:08:18;;;;;;;2.23;1.60;;;;;;;;;;5094992;28;20294;-81
2023/03/20 02:10:47;;;;;;;5.17;2.57;;;;;;;;;;5094914;28;20201;-81
2023/03/20 02:13:16;;;;;;;2.00;1.57;;;;;;;;;;5094771;28;20237;-81
2023/03/20 02:15:56;;;;;;;9.13;3.50;;;;;;;;;;5094970;28;20197;-81
2023/03/20 02:18:24;;;;;;;1.83;1.73;;;;;;;;;;5095101;28;20202;-81
2023/03/20 02:21:05;;;;;;;3.43;2.63;;;;;;;;;;5094893;28;20229;-80
2023/03/20 02:23:48;;;;;;;6.43;1.93;;;;;;;;;;5094464;28;20197;-81
2023/03/20 02:26:31;;;;;;;4.33;2.33;;;;;;;;;;5092236;28;20323;-81
2023/03/20 02:29:21;;;;;;;6.60;2.73;;;;;;;;;;5091340;28;20210;-81
2023/03/20 02:32:08;;;;;;;4.27;2.33;;;;;;;;;;5094135;28;20230;-81
2023/03/20 02:34:46;;;;;;;4.27;2.97;;;;;;;;;;5094789;28;20226;-81
2023/03/20 02:37:29;;;;;;;5.33;2.93;;;;;;;;;;5093973;28;20224;-81
2023/03/20 02:40:08;;;;;;;0.97;0.97;;;;;;;;;;5094369;28;20229;-81
2023/03/20 02:42:41;;;;;;;4.93;2.57;;;;;;;;;;5094291;28;20202;-82
2023/03/20 02:45:15;;;;;;;7.47;2.33;;;;;;;;;;5094382;28;20298;-82
2023/03/20 02:47:49;;;;;;;8.40;4.40;;;;;;;;;;5094130;28;20197;-82
2023/03/20 02:50:22;;;;;;;4.60;2.23;;;;;;;;;;5093957;28;20201;-82
2023/03/20 02:53:07;;;;;;;2.50;2.07;;;;;;;;;;5093903;28;20203;-82
2023/03/20 02:55:40;;;;;;;8.53;3.50;;;;;;;;;;5094172;28;20203;-82
2023/03/20 02:58:12;;;;;;;4.80;2.27;;;;;;;;;;5093926;28;20253;-82
2023/03/20 03:00:44;;;;;;;2.30;2.10;;;;;;;;;;5094301;28;20215;-82
2023/03/20 03:03:15;;;;;;;6.73;3.57;;;;;;;;;;5093843;28;20220;-83
2023/03/20 03:05:44;;;;;;;8.03;3.80;;;;;;;;;;5093079;28;20225;-82
2023/03/20 03:08:14;;;;;;;2.47;2.27;;;;;;;;;;5093669;28;20229;-82
2023/03/20 03:10:45;;;;;;;3.00;1.87;;;;;;;;;;5093346;28;20202;-82
2023/03/20 03:13:16;;;;;;;7.77;4.13;;;;;;;;;;5093312;28;20324;-82
2023/03/20 03:15:45;;;;;;;5.13;2.83;;;;;;;;;;5093778;28;20197;-82
2023/03/20 03:18:16;;;;;;;1.87;1.67;;;;;;;;;;5093941;28;20197;-82
2023/03/20 03:20:45;;;;;;;8.07;3.13;;;;;;;;;;5093447;28;20226;-82
2023/03/20 03:23:19;;;;;;;7.40;4.50;;;;;;;;;;5093241;28;20189;-82
2023/03/20 03:25:50;;;;;;;1.67;1.57;;;;;;;;;;5093465;28;20204;-82
2023/03/20 03:28:23;;;;;;;5.17;3.30;;;;;;;;;;5093151;28;20199;-82
2023/03/20 03:30:52;;;;;;;13.30;4.90;;;;;;;;;;5093399;28;20197;-82
2023/03/20 03:33:22;;;;;;;7.27;2.90;;;;;;;;;;5093112;28;20280;-82
2023/03/20 03:35:52;;;;;;;2.10;2.00;;;;;;;;;;5093122;28;20242;-82
2023/03/20 03:38:27;;;;;;;7.13;4.47;;;;;;;;;;5092813;28;20201;-82
2023/03/20 03:41:02;;;;;;;8.63;4.73;;;;;;;;;;5092863;28;20227;-82
2023/03/20 03:43:33;;;;;;;6.90;3.30;;;;;;;;;;5092750;28;20231;-82
2023/03/20 03:46:07;;;;;;;8.57;4.50;;;;;;;;;;5093203;28;20293;-82
2023/03/20 03:48:39;;;;;;;7.97;4.67;;;;;;;;;;5092819;28;20204;-82
2023/03/20 03:51:09;;;;;;;2.77;2.50;;;;;;;;;;5092551;28;20189;-82
2023/03/20 03:53:40;;;;;;;10.20;6.17;;;;;;;;;;5092958;28;20282;-82
2023/03/20 03:56:12;;;;;;;10.17;5.33;;;;;;;;;;5092631;28;20255;-82
2023/03/20 03:58:42;;;;;;;12.47;5.07;;;;;;;;;;5093131;28;20202;-82
2023/03/20 04:01:11;;;;;;;1.13;1.13;;;;;;;;;;5092880;28;20222;-82
2023/03/20 04:03:41;;;;;;;11.70;5.37;;;;;;;;;;5092388;28;20202;-82
2023/03/20 04:06:11;;;;;;;7.37;4.90;;;;;;;;;;5092590;28;20217;-82
2023/03/20 04:08:40;;;;;;;6.33;2.93;;;;;;;;;;5092706;28;20266;-82
2023/03/20 04:11:14;;;;;;;9.07;6.70;;;;;;;;;;5092793;28;20225;-82
2023/03/20 04:13:43;;;;;;;7.73;5.27;;;;;;;;;;5092527;28;20233;-82
2023/03/20 04:16:13;;;;;;;4.40;3.27;;;;;;;;;;5092440;28;20201;-82
2023/03/20 04:18:41;;;;;;;7.23;3.70;;;;;;;;;;5091895;28;20201;-82
2023/03/20 04:21:10;;;;;;;2.50;2.30;;;;;;;;;;5092646;28;20233;-82
2023/03/20 04:23:38;;;;;;;10.53;5.30;;;;;;;;;;5092653;28;20209;-82
2023/03/20 04:26:07;;;;;;;6.03;4.17;;;;;;;;;;5092235;28;20207;-82
2023/03/20 04:28:37;;;;;;;5.30;3.73;;;;;;;;;;5092349;28;20205;-82
2023/03/20 04:31:06;;;;;;;3.30;2.30;;;;;;;;;;5092722;28;20200;-82
2023/03/20 04:33:34;;;;;;;10.50;6.27;;;;;;;;;;5092416;28;20254;-82
2023/03/20 04:36:03;;;;;;;6.77;4.47;;;;;;;;;;5092304;28;20271;-82
2023/03/20 04:38:31;;;;;;;1.30;1.23;;;;;;;;;;5092275;28;20225;-82
2023/03/20 04:41:00;;;;;;;11.63;6.83;;;;;;;;;;5092308;28;20265;-82
2023/03/20 04:43:28;;;;;;;14.43;7.43;;;;;;;;;;5092376;28;20200;-82
2023/03/20 04:45:58;;;;;;;9.50;7.33;;;;;;;;;;5092091;28;20197;-82
2023/03/20 04:48:27;;;;;;;11.40;6.27;;;;;;;;;;5092365;28;20204;-82
2023/03/20 04:50:56;;;;;;;8.50;5.30;;;;;;;;;;5092480;28;20255;-82
2023/03/20 04:53:24;;;;;;;9.43;4.87;;;;;;;;;;5096452;28;20193;-82
2023/03/20 04:55:54;;;;;;;16.87;6.10;;;;;;;;;;5096194;28;20216;-82
2023/03/20 04:58:22;;;;;;;5.83;4.30;;;;;;;;;;5096120;28;20200;-82
2023/03/20 05:00:51;;;;;;;13.93;8.10;;;;;;;;;;5096030;28;20224;-82
2023/03/20 05:03:21;;;;;;;7.37;4.00;;;;;;;;;;5096229;28;20212;-82
2023/03/20 05:05:51;;;;;;;6.40;3.87;;;;;;;;;;5096318;28;20214;-82
2023/03/20 05:08:19;;;;;;;5.57;4.07;;;;;;;;;;5096276;28;20197;-82
2023/03/20 05:10:48;;;;;;;6.37;4.77;;;;;;;;;;5096238;28;20194;-82
2023/03/20 05:13:16;;;;;;;8.03;4.57;;;;;;;;;;5096131;28;20236;-82
2023/03/20 05:15:45;;;;;;;14.87;8.87;;;;;;;;;;5095978;28;20288;-82
2023/03/20 05:18:13;;;;;;;12.80;7.17;;;;;;;;;;5095636;28;20197;-82
2023/03/20 05:20:43;;;;;;;12.30;6.30;;;;;;;;;;5096033;28;20598;-82
2023/03/20 05:23:12;;;;;;;7.63;4.30;;;;;;;;;;5095711;28;20201;-82
2023/03/20 05:25:40;;;;;;;1.77;1.67;;;;;;;;;;5095864;28;20218;-82
2023/03/20 05:28:08;;;;;;;12.90;4.43;;;;;;;;;;5095582;28;20227;-82
2023/03/20 05:30:37;;;;;;;15.60;7.83;;;;;;;;;;5095518;28;20209;-82
2023/03/20 05:33:06;;;;;;;13.30;8.30;;;;;;;;;;5095762;28;20208;-82
2023/03/20 05:35:35;;;;;;;10.67;8.17;;;;;;;;;;5095483;28;20217;-82
2023/03/20 05:38:05;;;;;;;13.30;7.90;;;;;;;;;;5095520;28;20200;-82
2023/03/20 05:40:34;;;;;;;5.63;3.93;;;;;;;;;;5095315;28;20198;-82
2023/03/20 05:43:02;;;;;;;3.80;3.50;;;;;;;;;;5095368;28;20255;-82
2023/03/20 05:45:30;;;;;;;6.20;3.97;;;;;;;;;;5095051;28;20207;-82
2023/03/20 05:47:59;;;;;;;5.20;3.47;;;;;;;;;;5095217;28;20197;-82
2023/03/20 05:50:27;;;;;;;16.90;7.47;;;;;;;;;;5094981;28;20263;-82
2023/03/20 05:52:56;;;;;;;5.90;4.47;;;;;;;;;;5095445;28;20247;-82
2023/03/20 05:55:25;;;;;;;15.80;5.23;;;;;;;;;;5095050;28;20235;-82
2023/03/20 05:57:54;;;;;;;6.60;4.20;;;;;;;;;;5095313;28;20208;-81
2023/03/20 06:00:23;;;;;;;9.33;4.97;;;;;;;;;;5094893;28;20260;-81
2023/03/20 06:02:51;;;;;;;9.63;5.17;;;;;;;;;;5094806;28;20193;-81
2023/03/20 06:05:20;;;;;;;4.67;3.80;;;;;;;;;;5094809;28;20309;-81
2023/03/20 06:07:48;;;;;;;12.10;7.43;;;;;;;;;;5094899;28;20231;-81
2023/03/20 06:10:18;;;;;;;13.70;6.93;;;;;;;;;;5094851;28;20262;-81
2023/03/20 06:12:48;;;;;;;13.20;6.80;;;;;;;;;;5094385;28;20282;-80
2023/03/20 06:15:17;;;;;;;3.63;3.00;;;;;;;;;;5094979;28;20221;-81
2023/03/20 06:17:45;;;;;;;16.03;8.50;;;;;;;;;;5094872;28;20193;-81
2023/03/20 06:20:14;;;;;;;7.63;5.63;;;;;;;;;;5094744;28;20280;-81
2023/03/20 06:22:42;;;;;;;9.40;5.80;;;;;;;;;;5094607;28;20205;-80
2023/03/20 06:25:11;;;;;;;16.33;9.57;;;;;;;;;;5094447;28;20243;-81
2023/03/20 06:27:40;;;;;;;15.87;7.20;;;;;;;;;;5094664;28;20203;-81
2023/03/20 06:30:11;;;;;;;12.40;7.47;;;;;;;;;;5094596;28;20277;-80
2023/03/20 06:32:39;;;;;;;15.13;8.77;;;;;;;;;;5094244;28;20227;-81
2023/03/20 06:35:08;;;;;;;8.67;4.27;;;;;;;;;;5094394;28;20225;-82
2023/03/20 06:37:37;;;;;;;6.37;3.70;;;;;;;;;;5094019;28;20197;-81
2023/03/20 06:40:06;;;;;;;8.77;4.37;;;;;;;;;;5094250;28;20275;-82
2023/03/20 06:42:35;;;;;;;6.90;4.57;;;;;;;;;;5094537;28;20201;-82
2023/03/20 06:45:03;;;;;;;8.77;5.60;;;;;;;;;;5094113;28;20259;-81
2023/03/20 06:47:33;;;;;;;13.27;5.90;;;;;;;;;;5094265;28;20211;-81
2023/03/20 06:50:01;;;;;;;6.37;3.37;;;;;;;;;;5094237;28;20198;-81
2023/03/20 06:52:30;;;;;;;10.63;6.43;;;;;;;;;;5094150;28;20279;-81
2023/03/20 06:54:58;;;;;;;15.70;7.00;;;;;;;;;;5093980;28;20292;-82
2023/03/20 06:57:27;;;;;;;13.60;6.33;;;;;;;;;;5094315;28;20210;-81
2023/03/20 06:59:56;;;;;;;4.80;3.70;;;;;;;;;;5094194;28;20459;-81
2023/03/20 07:02:24;;;;;;;14.10;7.93;;;;;;;;;;5093987;28;20202;-81
2023/03/20 07:04:54;;;;;;;10.07;6.10;;;;;;;;;;5094026;28;20285;-81
2023/03/20 07:07:23;;;;;;;10.73;3.50;;;;;;;;;;5093784;28;20194;-81
2023/03/20 07:09:52;;;;;;;10.07;4.43;;;;;;;;;;5093498;28;20193;-82
2023/03/20 07:12:21;;;;;;;9.60;4.73;;;;;;;;;;5093950;28;20244;-81
2023/03/20 07:14:50;;;;;;;14.83;6.47;;;;;;;;;;5093221;28;20229;-81
2023/03/20 07:17:18;;;;;;;5.83;3.93;;;;;;;;;;5093442;28;20249;-81
2023/03/20 07:19:47;;;;;;;6.70;2.97;;;;;;;;;;5093532;28;20395;-83
2023/03/20 07:22:21;;;;;;;8.10;3.40;;;;;;;;;;5093350;28;20211;-83
2023/03/20 07:24:50;;;;;;;15.27;5.63;;;;;;;;;;5093296;28;20205;-83
2023/03/20 07:27:18;;;;;;;9.60;3.00;;;;;;;;;;5093237;28;20194;-83
2023/03/20 07:29:47;;;;;;;10.10;4.73;;;;;;;;;;5093251;28;20206;-83
2023/03/20 07:32:15;;;;;;;4.20;2.97;;;;;;;;;;5093062;28;20211;-83
2023/03/20 07:34:44;;;;;;;11.47;4.57;;;;;;;;;;5093391;28;20202;-83
2023/03/20 07:37:12;;;;;;;15.43;5.87;;;;;;;;;;5092884;28;20221;-83
2023/03/20 07:39:42;;;;;;;9.83;4.13;;;;;;;;;;5092928;28;20200;-83
2023/03/20 07:42:12;;;;;;;4.90;4.23;;;;;;;;;;5093209;28;20206;-83
2023/03/20 07:44:41;;;;;;;8.27;3.70;;;;;;;;;;5093180;28;20203;-84
2023/03/20 07:47:10;;;;;;;5.47;3.23;;;;;;;;;;5092885;28;20205;-84
2023/03/20 07:49:38;;;;;;;4.17;3.17;;;;;;;;;;5093060;28;20234;-83
2023/03/20 07:52:06;;;;;;;10.07;4.03;;;;;;;;;;5092957;28;20206;-84
2023/03/20 07:54:35;;;;;;;2.10;2.00;;;;;;;;;;5092768;28;20198;-84
2023/03/20 07:57:05;;;;;;;16.20;5.73;;;;;;;;;;5092958;28;20252;-84
2023/03/20 07:59:33;;;;;;;12.57;3.73;;;;;;;;;;5092561;28;20191;-84
2023/03/20 08:02:02;;;;;;;6.43;2.10;;;;;;;;;;5092228;28;20271;-84
2023/03/20 08:04:31;;;;;;;15.40;4.40;;;;;;;;;;5091540;28;20196;-84
2023/03/20 08:06:59;;;;;;;2.97;2.00;;;;;;;;;;5092267;28;20226;-83
2023/03/20 08:09:31;;;;;;;6.43;3.33;;;;;;;;;;5092558;28;20237;-84
2023/03/20 08:11:59;;;;;;;15.17;4.33;;;;;;;;;;5092531;28;20296;-84
2023/03/20 08:14:31;;;;;;;1.83;1.73;;;;;;;;;;5092351;28;20233;-84
2023/03/20 08:17:00;;;;;;;11.70;3.73;;;;;;;;;;5092489;28;20225;-84
2023/03/20 08:19:45;;;;;;;10.70;2.97;;;;;;;;;;5092694;28;20194;-84
2023/03/20 08:22:13;;;;;;;11.63;4.23;;;;;;;;;;5092358;28;20249;-84
2023/03/20 08:24:42;;;;;;;6.37;2.47;;;;;;;;;;5092377;28;20199;-84
2023/03/20 08:27:11;;;;;;;6.43;2.93;;;;;;;;;;5091578;28;20205;-84
2023/03/20 08:29:41;;;;;;;7.30;2.83;;;;;;;;;;5092666;28;20224;-84
2023/03/20 08:32:09;;;;;;;9.70;3.90;;;;;;;;;;5092367;28;20222;-84
2023/03/20 08:34:38;;;;;;;2.00;1.90;;;;;;;;;;5092260;28;20251;-84
2023/03/20 08:37:06;;;;;;;12.67;3.53;;;;;;;;;;5092193;28;20309;-84
2023/03/20 08:39:36;;;;;;;7.67;3.50;;;;;;;;;;5091889;28;20190;-84
2023/03/20 08:42:07;;;;;;;10.23;4.23;;;;;;;;;;5092148;28;20201;-84
2023/03/20 08:44:35;;;;;;;5.17;2.83;;;;;;;;;;5092185;28;20246;-84
2023/03/20 08:47:06;;;;;;;7.33;3.77;;;;;;;;;;5092369;28;20370;-84
2023/03/20 08:49:35;;;;;;;3.93;2.30;;;;;;;;;;5092426;28;20472;-83
2023/03/20 08:52:04;;;;;;;9.83;4.27;;;;;;;;;;5092228;28;20208;-84
2023/03/20 08:54:33;;;;;;;13.30;5.27;;;;;;;;;;5092298;28;20203;-85
2023/03/20 08:57:02;;;;;;;3.70;2.90;;;;;;;;;;5091654;28;20214;-84
2023/03/20 08:59:31;;;;;;;3.53;2.23;;;;;;;;;;5092068;28;20272;-85
2023/03/20 09:02:00;;;;;;;4.83;2.40;;;;;;;;;;5092280;28;20392;-83
2023/03/20 09:04:31;;;;;;;5.97;3.00;;;;;;;;;;5092073;28;20198;-83
2023/03/20 09:07:01;;;;;;;5.33;3.07;;;;;;;;;;5091638;28;20213;-84
2023/03/20 09:09:31;;;;;;;12.43;4.33;;;;;;;;;;5091936;28;20214;-83
2023/03/20 09:12:00;;;;;;;5.13;3.03;;;;;;;;;;5091852;28;20233;-83
2023/03/20 09:14:29;;;;;;;4.20;2.53;;;;;;;;;;5092049;28;20235;-83
2023/03/20 09:16:58;;;;;;;12.73;5.43;;;;;;;;;;5091775;28;20214;-83
2023/03/20 09:19:26;;;;;;;14.87;6.77;;;;;;;;;;5091969;28;20197;-83
2023/03/20 09:22:01;;;;;;;6.83;3.03;;;;;;;;;;5091862;28;20238;-83
2023/03/20 09:24:30;;;;;;;9.60;5.43;;;;;;;;;;5091839;28;20207;-83
2023/03/20 09:26:59;;;;;;;11.23;4.63;;;;;;;;;;5091984;28;20271;-83
2023/03/20 09:29:30;;;;;;;11.90;5.97;;;;;;;;;;5091828;28;20234;-84
2023/03/20 09:31:59;;;;;;;10.57;2.67;;;;;;;;;;5091969;28;20265;-84
2023/03/20 09:34:29;;;;;;;4.03;3.60;;;;;;;;;;5091819;28;20205;-84
2023/03/20 09:36:58;;;;;;;14.60;6.30;;;;;;;;;;5091910;28;20245;-84
2023/03/20 09:39:27;;;;;;;14.07;7.33;;;;;;;;;;5095430;28;20231;-84
2023/03/20 09:41:59;;;;;;;11.87;4.77;;;;;;;;;;5095418;28;20240;-85
2023/03/20 09:44:39;;;;;;;3.83;2.50;;;;;;;;;;5095542;28;20222;-84
2023/03/20 09:47:12;;;;;;;10.03;3.67;;;;;;;;;;5095153;28;20251;-85
2023/03/20 09:49:54;;;;;;;13.23;4.87;;;;;;;;;;5095386;28;20256;-84
2023/03/20 09:52:27;;;;;;;15.00;7.70;;;;;;;;;;5095505;28;20443;-84
2023/03/20 09:55:01;;;;;;;11.63;6.20;;;;;;;;;;5095644;28;20202;-84
2023/03/20 09:57:33;;;;;;;7.83;3.70;;;;;;;;;;5095019;28;20218;-85
2023/03/20 10:00:03;;;;;;;13.53;4.90;;;;;;;;;;5095483;28;20202;-84
2023/03/20 10:02:37;;;;;;;11.67;7.03;;;;;;;;;;5095132;28;20257;-84
2023/03/20 10:05:13;;;;;;;5.90;3.77;;;;;;;;;;5094745;28;20212;-83
2023/03/20 10:07:42;;;;;;;13.73;6.37;;;;;;;;;;5095231;28;20201;-83
2023/03/20 10:10:14;;;;;;;11.57;6.67;;;;;;;;;;5094725;28;20248;-84
2023/03/20 10:12:50;;;;;;;14.97;7.63;;;;;;;;;;5094600;28;20216;-83
2023/03/20 10:15:21;;;;;;;9.07;5.17;;;;;;;;;;5094713;28;20206;-83
2023/03/20 10:17:53;;;;;;;12.30;5.60;;;;;;;;;;5094637;28;20244;-83
2023/03/20 10:20:25;;;;;;;9.33;5.27;;;;;;;;;;5094676;28;20222;-83
2023/03/20 10:22:56;;;;;;;9.67;5.70;;;;;;;;;;5094400;28;20479;-83
2023/03/20 10:25:28;;;;;;;12.87;9.60;;;;;;;;;;5094616;28;20211;-83
2023/03/20 10:27:59;;;;;;;8.00;5.53;;;;;;;;;;5094438;28;20199;-83
2023/03/20 10:30:32;;;;;;;9.03;6.87;;;;;;;;;;5094706;28;20205;-84
2023/03/20 10:33:06;;;;;;;8.73;4.77;;;;;;;;;;5094399;28;20211;-84
2023/03/20 10:35:40;;;;;;;7.13;5.27;;;;;;;;;;5094076;28;20212;-85
2023/03/20 10:38:15;;;;;;;10.60;6.23;;;;;;;;;;5094362;28;20267;-84
2023/03/20 10:40:45;;;;;;;6.27;5.50;;;;;;;;;;5094384;28;20214;-84
2023/03/20 10:43:16;;;;;;;10.37;8.33;;;;;;;;;;5094222;28;20201;-85
2023/03/20 10:45:47;;;;;;;14.27;9.33;;;;;;;;;;5094070;28;20207;-84
2023/03/20 10:48:21;;;;;;;13.50;8.33;;;;;;;;;;5093762;28;20219;-84
2023/03/20 10:50:51;;;;;;;13.80;7.90;;;;;;;;;;5093217;28;20248;-84
2023/03/20 10:53:24;;;;;;;7.83;5.87;;;;;;;;;;5093911;28;20202;-84
2023/03/20 10:55:57;;;;;;;10.33;9.33;;;;;;;;;;5094102;28;20275;-84
2023/03/20 10:58:30;;;;;;;10.93;7.27;;;;;;;;;;5093431;28;20264;-82
2023/03/20 11:00:59;;;;;;;12.63;8.17;;;;;;;;;;5094133;28;20198;-84
2023/03/20 11:03:29;;;;;;;9.73;7.57;;;;;;;;;;5094055;28;20201;-84
2023/03/20 11:05:59;;;;;;;10.13;8.87;;;;;;;;;;5093760;28;20226;-84
2023/03/20 11:08:38;;;;;;;9.80;8.80;;;;;;;;;;5093799;28;20207;-84
2023/03/20 11:11:09;;;;;;;12.53;7.53;;;;;;;;;;5084953;28;20214;-85
2023/03/20 11:13:40;;;;;;;14.33;8.13;;;;;;;;;;5091759;28;20304;-83
2023/03/20 11:16:18;;;;;;;13.33;9.37;;;;;;;;;;5083512;28;20202;-83
2023/03/20 11:18:48;;;;;;;11.63;9.60;;;;;;;;;;5092360;28;20249;-82
2023/03/20 11:21:18;;;;;;;6.93;5.30;;;;;;;;;;5080066;28;20236;-84
2023/03/20 11:23:47;;;;;;;11.63;8.17;;;;;;;;;;5082469;28;20298;-84
2023/03/20 11:26:18;;;;;;;9.37;8.47;;;;;;;;;;5083900;28;20217;-84
2023/03/20 11:28:53;;;;;;;9.37;7.30;;;;;;;;;;5079840;28;20231;-82
2023/03/20 11:31:26;;;;;;;9.07;5.27;;;;;;;;;;5076815;28;20209;-84
2023/03/20 11:34:01;;;;;;;12.73;10.70;;;;;;;;;;5076049;28;20208;-82
2023/03/20 11:36:31;;;;;;;11.77;8.70;;;;;;;;;;5073249;28;20211;-82
2023/03/20 11:39:03;;;;;;;10.67;8.80;;;;;;;;;;5074776;28;20254;-82
2023/03/20 11:41:33;;;;;;;14.10;10.70;;;;;;;;;;5078843;28;20263;-83
2023/03/20 11:44:01;;;;;;;10.57;8.50;;;;;;;;;;5077935;28;20202;-83
2023/03/20 11:46:30;;;;;;;9.83;6.80;;;;;;;;;;5077602;28;20279;-83
2023/03/20 11:49:04;;;;;;;7.53;6.80;;;;;;;;;;5074519;28;20286;-83
2023/03/20 11:51:39;;;;;;;7.53;6.73;;;;;;;;;;5079257;28;20195;-82
2023/03/20 11:54:10;;;;;;;13.23;9.70;;;;;;;;;;5087645;28;20272;-84
2023/03/20 11:56:51;;;;;;;9.00;6.00;;;;;;;;;;5076081;28;20474;-84
2023/03/20 11:59:21;;;;;;;13.70;12.23;;;;;;;;;;5082469;28;20689;-83
2023/03/20 12:01:50;;;;;;;10.10;9.03;;;;;;;;;;5077782;28;20209;-83
2023/03/20 12:04:20;;;;;;;7.17;6.33;;;;;;;;;;5071396;28;20211;-84
2023/03/20 12:06:51;;;;;;;6.53;5.93;;;;;;;;;;5076569;28;20218;-83
2023/03/20 12:09:32;;;;;;;9.80;8.67;;;;;;;;;;5078365;28;20216;-83
2023/03/20 12:12:16;;;;;;;5.27;4.23;;;;;;;;;;5077378;28;20218;-84
2023/03/20 12:15:02;;;;;;;5.43;3.70;;;;;;;;;;5087154;28;20224;-83
2023/03/20 12:17:42;;;;;;;10.67;4.30;;;;;;;;;;5092057;28;20207;-82
2023/03/20 12:20:23;;;;;;;3.77;3.30;;;;;;;;;;5091222;28;20234;-82
2023/03/20 12:23:00;;;;;;;4.13;3.63;;;;;;;;;;5091358;28;20212;-83
2023/03/20 12:25:36;;;;;;;4.93;4.47;;;;;;;;;;5091690;28;20299;-83
2023/03/20 12:28:06;;;;;;;8.53;7.43;;;;;;;;;;5087341;28;20203;-83
2023/03/20 12:30:44;;;;;;;4.13;3.73;;;;;;;;;;5075619;28;20229;-83
2023/03/20 12:33:15;;;;;;;9.37;3.13;;;;;;;;;;5074909;28;20210;-83
2023/03/20 12:35:46;;;;;;;7.23;5.80;;;;;;;;;;5074799;28;20214;-83
2023/03/20 12:38:21;;;;;;;4.60;4.20;;;;;;;;;;5076070;28;20200;-84
2023/03/20 12:40:51;;;;;;;3.77;3.47;;;;;;;;;;5079895;28;20201;-84
2023/03/20 12:43:24;;;;;;;2.97;2.77;;;;;;;;;;5076634;28;20202;-84
2023/03/20 12:45:55;;;;;;;3.90;3.50;;;;;;;;;;5078942;28;20199;-83
2023/03/20 12:48:38;;;;;;;4.77;3.40;;;;;;;;;;5076092;28;20207;-83
2023/03/20 12:51:10;;;;;;;8.80;7.30;;;;;;;;;;5075458;28;20204;-83
2023/03/20 12:53:47;;;;;;;4.60;4.20;;;;;;;;;;5076354;28;20253;-82
2023/03/20 12:56:21;;;;;;;4.87;4.27;;;;;;;;;;5076403;28;20203;-82
2023/03/20 12:58:53;;;;;;;3.97;3.50;;;;;;;;;;5075309;28;20275;-84
2023/03/20 13:01:29;;;;;;;6.90;5.47;;;;;;;;;;5075028;28;20211;-84
2023/03/20 13:04:02;;;;;;;5.67;4.67;;;;;;;;;;5077035;28;20210;-83
2023/03/20 13:06:35;;;;;;;6.33;3.37;;;;;;;;;;5080581;28;20237;-82
2023/03/20 13:09:16;;;;;;;3.70;3.37;;;;;;;;;;5078642;28;20200;-84
2023/03/20 13:11:50;;;;;;;2.73;2.40;;;;;;;;;;5076767;28;20203;-84
2023/03/20 13:14:23;;;;;;;7.20;5.47;;;;;;;;;;5082564;28;20242;-82
2023/03/20 13:16:58;;;;;;;5.83;4.30;;;;;;;;;;5080251;28;20202;-82
2023/03/20 13:19:28;;;;;;;5.07;4.30;;;;;;;;;;5081836;28;20265;-82
2023/03/20 13:22:01;;;;;;;3.57;2.97;;;;;;;;;;5079799;28;20210;-82
2023/03/20 13:24:33;;;;;;;2.93;2.73;;;;;;;;;;5082275;28;20207;-82
2023/03/20 13:27:05;;;;;;;3.40;2.90;;;;;;;;;;5078986;28;20214;-82
2023/03/20 13:29:39;;;;;;;3.47;3.17;;;;;;;;;;5082016;28;20200;-83
2023/03/20 13:32:15;;;;;;;4.23;3.47;;;;;;;;;;5075555;28;20424;-83
2023/03/20 13:34:54;;;;;;;3.00;2.67;;;;;;;;;;5082207;28;20220;-83
2023/03/20 13:37:34;;;;;;;7.03;2.90;;;;;;;;;;5081174;28;20219;-82
2023/03/20 13:40:17;;;;;;;4.80;2.90;;;;;;;;;;5082972;28;20226;-84
2023/03/20 13:42:48;;;;;;;5.47;3.40;;;;;;;;;;5080285;28;20207;-83
2023/03/20 13:45:27;;;;;;;4.03;2.50;;;;;;;;;;5083542;28;20583;-82
2023/03/20 13:48:03;;;;;;;4.43;3.87;;;;;;;;;;5081361;28;20207;-81
2023/03/20 13:50:39;;;;;;;6.03;2.13;;;;;;;;;;5084806;28;20204;-82
2023/03/20 13:53:15;;;;;;;4.83;4.13;;;;;;;;;;5094037;28;20204;-83
2023/03/20 13:56:03;;;;;;;7.63;3.73;;;;;;;;;;5083627;28;20210;-83
2023/03/20 13:58:47;;;;;;;8.37;5.70;;;;;;;;;;5077406;28;20253;-84
2023/03/20 14:01:38;;;;;;;6.57;5.07;;;;;;;;;;5076788;28;20203;-84
2023/03/20 14:04:43;;;;;;;9.13;5.57;;;;;;;;;;5077057;28;20222;-83
2023/03/20 14:07:26;;;;;;;8.20;5.60;;;;;;;;;;5077131;28;20326;-83
2023/03/20 14:10:01;;;;;;;8.23;3.13;;;;;;;;;;5077195;28;20199;-84
2023/03/20 14:12:37;;;;;;;6.00;4.20;;;;;;;;;;5080224;28;20264;-83
2023/03/20 14:15:23;;;;;;;5.93;4.13;;;;;;;;;;5078816;28;20199;-83
2023/03/20 14:17:57;;;;;;;5.57;3.33;;;;;;;;;;5079849;28;20298;-83
2023/03/20 14:20:32;;;;;;;5.23;4.27;;;;;;;;;;5079000;28;20220;-83
2023/03/20 14:23:06;;;;;;;4.30;3.90;;;;;;;;;;5078901;28;20214;-83
2023/03/20 14:25:37;;;;;;;6.07;3.93;;;;;;;;;;5081379;28;20217;-83
2023/03/20 14:28:10;;;;;;;8.67;4.73;;;;;;;;;;5091668;28;20236;-84
2023/03/20 14:30:44;;;;;;;3.47;2.60;;;;;;;;;;5093468;28;20204;-83
2023/03/20 14:33:49;;;;;;;12.93;2.57;;;;;;;;;;5077320;28;20208;-83
2023/03/20 14:36:45;;;;;;;12.07;4.87;;;;;;;;;;5074620;28;20268;-83
2023/03/20 14:39:21;;;;;;;20.83;8.20;;;;;;;;;;5076115;28;20270;-84
2023/03/20 14:41:57;;;;;;;10.73;6.00;;;;;;;;;;5075408;28;20255;-84
2023/03/20 14:44:31;;;;;;;8.40;4.00;;;;;;;;;;5078509;28;20206;-84
2023/03/20 14:47:03;;;;;;;8.33;5.13;;;;;;;;;;5077924;28;20192;-85
2023/03/20 14:49:48;;;;;;;10.90;5.43;;;;;;;;;;5076894;28;20223;-85
2023/03/20 14:52:30;;;;;;;17.73;8.17;;;;;;;;;;5082064;28;20310;-84
2023/03/20 14:55:14;;;;;;;12.13;5.83;;;;;;;;;;5075629;28;20275;-83
2023/03/20 14:57:51;;;;;;;14.90;4.17;;;;;;;;;;5081209;28;20216;-84
2023/03/20 15:00:25;;;;;;;7.10;4.73;;;;;;;;;;5075440;28;20220;-84
2023/03/20 15:02:54;;;;;;;25.33;6.10;;;;;;;;;;5075032;28;20257;-82
2023/03/20 15:05:27;;;;;;;7.57;3.83;;;;;;;;;;5077303;28;20223;-84